• Join FlightAware (Why Join?)
  • Login
  • US Flag 
09:29PM EDT


 

Airport Tracker/Info


-or-


 

Live Flight TrackerFlight Track Log ✈ RPA3291 ✈ 19-Jun-2013 ✈ KDTW - KPHL

Flight Track Log - Related Links

Times and Time Zones

All times are in EDT time to prevent confusion due to time zone crossing. See the RPA3291 flight status page for this flight to view local times or setup timezone preferences in your user account.

Time Position Orientation Groundspeed Altitude Reporting Facility
EDT Latitude Longitude Course Direction KTS MPH feet Rate Location/Type
05:14PM 42.1994 -83.3581 90° East 152 175 1,300  Level Cleveland Center
05:15PM 42.1217 -83.3828 193° South 244 281 4,000 2,280 Climbing Cleveland Center
05:16PM 42.0483 -83.4019 191° South 273 314 7,100 2,880 Climbing Cleveland Center
05:17PM 42.2167 -82.7720 90° East  Level FlightAware Approximate
05:17PM 41.9739 -83.3789 167° South 307 353 10,000  Level Cleveland Center
05:18PM 42.2167 -82.6263 90° East  Level FlightAware Approximate
05:18PM 41.9869 -83.2650 81° East 289 333 12,200  Level Cleveland Center
05:19PM 42.2167 -82.4806 90° East  Level FlightAware Approximate
05:19PM 42.0189 -83.1489 70° East 289 333 14,500  Level Cleveland Center
05:20PM 42.0547 -83.0272 68° East 318 366 16,800 1,200 Climbing Cleveland Center
05:21PM 42.0906 -82.9111 67° East 338 389 17,000 720 Climbing Cleveland Center
05:22PM 42.1264 -82.7864 69° East 351 404 18,300 1,740 Climbing Cleveland Center
05:23PM 42.1642 -82.6561 69° East 358 412 20,500 1,980 Climbing Cleveland Center
05:24PM 42.2019 -82.5200 69° East 370 426 22,300 1,920 Climbing Cleveland Center
05:25PM 42.2169 -82.3719 82° East 376 433 24,400 1,320 Climbing Cleveland Center
05:26PM 42.2069 -82.2147 95° East 398 458 25,000 660 Climbing Cleveland Center
05:27PM 42.1944 -82.0433 96° East 412 474 25,800 1,140 Climbing Cleveland Center
05:28PM 42.1547 -81.8967 110° East 411 473 27,300 1,320 Climbing Cleveland Center
05:29PM 42.0558 -81.7828 139° Southeast 432 497 28,500 1,260 Climbing Cleveland Center
05:30PM 41.9611 -81.6722 139° Southeast 449 517 29,900 1,200 Climbing Cleveland Center
05:31PM 41.8642 -81.5589 139° Southeast 459 528 31,000 540 Climbing Cleveland Center
05:32PM 41.7692 -81.4517 140° Southeast 459 528 31,000  Level Cleveland Center
05:33PM 41.6822 -81.3533 140° Southeast 459 528 31,000  Level Cleveland Center
05:34PM 41.5828 -81.2411 140° Southeast 459 528 31,000  Level Cleveland Center
05:35PM 41.4917 -81.1264 137° Southeast 454 522 31,000  Level Cleveland Center
05:36PM 41.4047 -81.0067 134° Southeast 454 522 31,000  Level Cleveland Center
05:37PM 41.3092 -80.8733 134° Southeast 454 522 31,000  Level Cleveland Center
05:38PM 41.2219 -80.7542 134° Southeast 454 522 31,000  Level Cleveland Center
05:39PM 41.1344 -80.6356 134° Southeast 448 516 31,000  Level Cleveland Center
05:40PM 41.0594 -80.5281 133° Southeast 448 516 31,000  Level Cleveland Center
05:41PM 40.9739 -80.4097 134° Southeast 448 516 31,000  Level Cleveland Center
05:42PM 40.8839 -80.2892 135° Southeast 448 516 31,000  Level Cleveland Center
05:43PM 40.7981 -80.1497 129° Southeast 443 510 31,000  Level Cleveland Center
05:44PM 40.7475 -80.0019 114° Southeast 443 510 31,000  Level Cleveland Center
05:45PM 40.7008 -79.8628 114° Southeast 443 510 31,000  Level Cleveland Center
05:46PM 40.6456 -79.7156 116° Southeast 448 516 31,000  Level Cleveland Center
05:47PM 40.5964 -79.5658 113° Southeast 448 516 31,000  Level Cleveland Center
05:48PM 40.5758 -79.3994 99° East 448 516 31,000  Level Cleveland Center
05:49PM 40.5553 -79.2358 99° East 448 516 31,000  Level Cleveland Center
05:50PM 40.5386 -79.0722 98° East 448 516 31,000 -120 Level Cleveland Center
05:51PM 40.5197 -78.9089 99° East 448 516 30,800 -900 Descending Cleveland Center
05:52PM 40.5003 -78.7292 98° East 465 535 29,300 -1,500 Descending Cleveland Center
05:53PM 40.4783 -78.5442 99° East 491 565 27,800 -1,380 Descending Cleveland Center
05:55PM 40.4472 -78.2608 98° East 495 570 26,000 -1,140 Descending New York Center
05:56PM 40.4269 -78.0842 99° East 495 570 25,100 -540 Descending New York Center
05:57PM 40.4044 -77.9044 99° East 489 563 25,000 -60 Descending New York Center
05:58PM 40.3836 -77.7306 99° East 489 563 25,000 -660 Level New York Center
05:59PM 40.3647 -77.5542 98° East 489 563 23,800 -1,260 Descending New York Center
06:00PM 40.3428 -77.3886 100° East 483 556 22,600 -1,080 Descending New York Center
06:01PM 40.3250 -77.2589 100° East 471 542 21,700 -1,140 Descending New York Center
06:02PM 40.2983 -77.0578 100° East 465 535 20,400 -1,200 Descending New York Center
06:03PM 40.2625 -76.9047 107° East 454 522 19,300 -1,200 Descending New York Center
06:04PM 40.2289 -76.7494 106° East 447 514 18,100 -1,320 Descending New York Center
06:05PM 40.1925 -76.6025 108° East 442 509 16,800 -1,080 Descending New York Center
06:06PM 40.1614 -76.4719 107° East 426 490 16,000 -780 Descending New York Center
06:07PM 40.1289 -76.3228 106° East 426 490 15,300 -960 Descending New York Center
06:08PM 40.1131 -76.1694 98° East 405 466 14,100 -1,260 Descending New York Center
06:09PM 40.1042 -76.0439 95° East 366 421 12,800 -1,680 Descending New York Center
06:10PM 40.0958 -75.9456 96° East 320 368 10,800 -2,040 Descending New York Center
06:11PM 40.0864 -75.8283 96° East 290 334 8,900 -1,440 Descending New York Center
06:12PM 40.0800 -75.7328 95° East 295 339 8,000 -480 Descending New York Center
06:13PM 40.0744 -75.6158 94° East 295 339 8,000  Level New York Center
06:14PM 40.0700 -75.5206 93° East 295 339 8,000 -840 Level New York Center
06:15PM 40.0642 -75.4061 94° East 295 339 6,400 -1,260 Descending New York Center
06:16PM 40.0667 -75.3333 87° East 274 315 6,000 -240 Descending Philadelphia TRACON
06:17PM 40.0500 -75.2333 102° East 269 310 6,000 -60 Level Philadelphia TRACON
06:18PM 40.0333 -75.1500 105° East 197 227 5,900  Descending Philadelphia TRACON
06:19PM 40.0333 -75.1000 90° East 187 215 6,000 -540 Climbing Philadelphia TRACON
06:20PM 40.0167 -75.0167 105° East 186 214 4,900 -1,140 Descending Philadelphia TRACON
06:21PM 39.9833 -74.9833 143° Southeast 185 213 3,800 -1,020 Descending Philadelphia TRACON
06:22PM 39.9333 -74.9667 166° South 183 211 3,000 -480 Descending Philadelphia TRACON
06:23PM 39.9167 -75.0333 252° West 173 199 2,900 -120 Descending Philadelphia TRACON